Aeroporto :
LOGIN :

Iscrizione | Disclaimer

   EN    FR    IT 

 










Sommario :    VFR   VFR Marginale   IFR   IFR Intensivo   IFR Molto Intensivo
Visibilità : 
Base nubi : 
>= 8 km
>= 3000ft
5 / 8 km
1000 / 3000 ft
1500m / 5 km
500 / 1000 ft
800 / 1500m
200 / 500 ft
< 800m
< 200 ft
Simboli :   Temporali  Nebbia  Neve Forte  Precipitazioni Forti  Vento > 20 kt
SIGMETs :   Varie  Temporali  Ghiacco  Turbolenza  Onda orograficha  Ceneri Vulcaniche






- Altitudine del aeroporto : 247 ft
- Codice IATA : BLL


EKBI - Billund

ULTIMO METAR :
  • 021620Z AUTO 25016KT 7000 -SHRA BKN013/// OVC050/// 05/03 Q0998

METARs OBSOLETI :
  • 021550Z AUTO 26016KT 9999 OVC037/// 05/03 Q0999
  • 021520Z 27020KT 9999 FEW016CB BKN020 05/03 Q0999
  • 021450Z AUTO 24020KT 9999 DZ BKN017/// 07/04 Q0998
  • 021420Z AUTO 24019G29KT 210V270 9999 OVC017/// 07/04 Q0999
  • 021350Z AUTO 25019KT 9999 OVC021/// 07/03 Q0999

TAF TAF EKBI
Valido dal 02 a 12 ore il 03 a 12 ore UTC


021059Z 0212/0312 27018KT 9999 BKN020
TEMPO 0212/0218 26020G35KT SHRA BKN012 BKN015CB
TEMPO 0218/0222 28018G30KT FEW020CB
TEMPO 0222/0306 29015G28KT 3000 SHRASNGS BKN012 SCT015CB
TEMPO 0306/0312 29018G30KT FEW025CB



MetMap, La meteo Aeronautica in un colpo d'occhio ! - Copyright ORBIFLY Dicembre 2007 - Disclaimer

ORBIFLY MET'MAP TEAM :

Programmazione e sviluppo : Alexandra Zaïnal
Concezione : Baudouin d'Aumeries
Aiuto per la programmazione : Marc-Olivier Méhu
Supporto tecnico e logistico : Manuel Goepfert
Aiuto per la traduzione : Arnaldo La Scala

Contatto : metmap@orbifly.com




FONTI E CREDITI :

   NOAA